Main page
METAR-TAF:

METAR-TAF

Airports :

Key West International Airport

Key West, Florida, United States

latitude: 24-33-13N, longitude: 081-45-13W, elevation: 3 ft

Current weather observation

The report was made 41 minutes ago, at 06:53 UTC
Wind 8 mph from the East/Northeast
Temperature 75°F
Humidity 69%
Pressure 30.03 in. Hg
Visibility: 10 miles
Few clouds at a height of 3600 ft

METAR: KEYW 180653Z AUTO 06007KT 10SM FEW036 24/18 A3003 RMK AO2 SLP170 T02440178

Time: 03:34 (07:34 UTC)

Forecast

The report was made 1 hour and 54 minutes ago, at 05:40 UTC
Forecast valid from 18 at 06 UTC to 19 at 06 UTC
Wind 13 mph from the East with gusts up to 21 mph
Visibility: 6 miles
Few clouds at a height of 3500 ft
From 18 at 1500 UTC
Wind 17 mph from the East with gusts up to 26 mph
Visibility: 6 miles
Scattered clouds at a height of 3500 ft

TAF: KEYW 180540Z 1806/1906 08011G18KT P6SM FEW035 FM181500 09015G23KT P6SM SCT035

Weather observations and forecasts of more than 4000 airports (METAR and TAF reports).

The available stations are represented by yellow and red dots on the map.

Hover mouse over dot to see the name of the station.

Then click to see weather observations and forecasts.

To change the map : click on the green buttons with a black cross to zoom in, on the green button with a dash to zoom out, or on the green arrows for adjacent maps.


METAR-TAF: